createdAt,value
2022-09-20T00:02:23.767Z,0.73
2022-09-20T00:04:53.896Z,0.82
2022-09-20T00:07:23.958Z,0.95
2022-09-20T00:09:54.335Z,0.75
2022-09-20T00:12:24.754Z,0.52
2022-09-20T00:14:54.835Z,0.75
2022-09-20T00:17:27.511Z,0.98
2022-09-20T00:19:57.754Z,1.15
2022-09-20T00:22:27.798Z,1.02
2022-09-20T00:24:57.848Z,1.13
2022-09-20T00:27:28.061Z,0.73
2022-09-20T00:29:58.265Z,2.50
2022-09-20T00:32:31.004Z,1.05
2022-09-20T00:35:13.587Z,0.95
2022-09-20T00:37:46.140Z,1.55
2022-09-20T00:40:18.345Z,0.93
2022-09-20T00:42:48.394Z,0.77
2022-09-20T00:45:24.711Z,1.23
2022-09-20T00:48:00.572Z,1.00
2022-09-20T00:50:37.100Z,1.20
2022-09-20T00:53:12.505Z,1.70
2022-09-20T00:55:48.960Z,1.42
2022-09-20T00:58:20.600Z,1.83
2022-09-20T01:00:52.320Z,1.40
2022-09-20T01:03:27.692Z,2.72
2022-09-20T01:05:58.828Z,1.60
2022-09-20T01:08:29.116Z,1.80
2022-09-20T01:10:59.550Z,1.88
2022-09-20T01:13:29.745Z,1.63
2022-09-20T01:16:01.819Z,1.73
2022-09-20T01:18:36.018Z,1.60
2022-09-20T01:21:07.646Z,1.75
2022-09-20T01:23:48.765Z,2.13
2022-09-20T01:26:54.872Z,1.23
2022-09-20T01:29:51.935Z,1.42
2022-09-20T01:34:57.668Z,1.50
2022-09-20T01:37:31.030Z,1.40
2022-09-20T01:40:10.551Z,1.55
2022-09-20T01:42:43.819Z,1.55
2022-09-20T01:45:22.618Z,2.08
2022-09-20T01:48:02.343Z,1.60
2022-09-20T01:50:39.799Z,1.92
2022-09-20T01:56:16.179Z,1.38
2022-09-20T01:59:27.109Z,3.42
2022-09-20T02:02:12.185Z,1.95
2022-09-20T02:05:11.580Z,2.10
2022-09-20T02:08:08.749Z,1.45
2022-09-20T02:10:58.266Z,1.42
2022-09-20T02:13:33.619Z,1.58
2022-09-20T02:16:37.648Z,1.42
2022-09-20T02:19:43.403Z,1.67
2022-09-20T02:22:26.123Z,1.35
2022-09-20T02:25:04.875Z,2.03
2022-09-20T02:27:43.723Z,1.17
2022-09-20T02:30:22.449Z,1.40
2022-09-20T02:33:12.143Z,1.27
2022-09-20T02:36:00.005Z,1.50
2022-09-20T02:38:44.610Z,1.77
2022-09-20T02:41:41.189Z,2.10
2022-09-20T02:44:21.368Z,1.77
2022-09-20T02:46:59.055Z,2.58
2022-09-20T02:49:36.495Z,1.95
2022-09-20T02:52:19.909Z,2.03
2022-09-20T02:54:59.506Z,2.08
2022-09-20T02:57:40.299Z,2.13
2022-09-20T03:00:15.912Z,2.22
2022-09-20T03:02:59.195Z,2.17
2022-09-20T03:05:35.080Z,2.03
2022-09-20T03:08:23.668Z,2.63
2022-09-20T03:11:00.794Z,1.58
2022-09-20T03:13:46.206Z,1.38
2022-09-20T03:16:21.236Z,1.90
2022-09-20T03:19:12.202Z,1.08
2022-09-20T03:21:54.609Z,1.38
2022-09-20T03:24:42.939Z,1.15
2022-09-20T03:27:23.568Z,1.00
2022-09-20T03:30:10.375Z,1.92
2022-09-20T03:32:52.919Z,1.48
2022-09-20T03:35:45.068Z,1.67
2022-09-20T03:38:32.207Z,2.13
2022-09-20T03:41:37.723Z,1.55
2022-09-20T03:44:52.290Z,1.73
2022-09-20T03:47:37.150Z,1.35
2022-09-20T03:50:24.232Z,1.42
2022-09-20T03:53:07.802Z,1.35
2022-09-20T03:56:01.942Z,1.52
2022-09-20T03:58:43.520Z,1.02
2022-09-20T04:01:33.310Z,1.65
2022-09-20T04:04:12.059Z,1.27
2022-09-20T04:06:52.596Z,1.45
2022-09-20T04:10:04.095Z,1.98
2022-09-20T04:12:45.402Z,1.27
2022-09-20T04:15:30.296Z,1.48
2022-09-20T04:18:08.794Z,1.17
2022-09-20T04:20:46.743Z,1.48
2022-09-20T04:23:41.193Z,1.98
2022-09-20T04:26:11.769Z,1.63
2022-09-20T04:28:49.127Z,3.97
2022-09-20T04:31:30.494Z,2.33
2022-09-20T04:34:05.208Z,2.75
2022-09-20T04:36:56.609Z,2.33
2022-09-20T04:39:42.638Z,2.05
2022-09-20T04:42:56.277Z,1.48
2022-09-20T04:45:59.496Z,1.42
2022-09-20T04:49:17.406Z,2.58
2022-09-20T04:52:26.013Z,3.55
2022-09-20T04:55:38.006Z,3.28
2022-09-20T04:58:39.065Z,3.17
2022-09-20T05:01:38.853Z,3.47
2022-09-20T05:04:40.752Z,2.45
2022-09-20T05:07:32.058Z,2.92
2022-09-20T05:10:34.112Z,2.90
2022-09-20T05:13:18.101Z,2.97
2022-09-20T05:15:54.299Z,2.50
2022-09-20T05:19:05.028Z,2.78
2022-09-20T05:22:10.202Z,3.42
2022-09-20T05:24:59.328Z,3.92
2022-09-20T05:27:42.744Z,2.75
2022-09-20T05:30:24.458Z,2.88
2022-09-20T05:33:05.685Z,3.50
2022-09-20T05:35:45.229Z,2.67
2022-09-20T05:38:24.747Z,4.97
2022-09-20T05:41:13.976Z,4.32
2022-09-20T05:43:55.572Z,3.78
2022-09-20T05:46:47.751Z,3.55
2022-09-20T05:49:27.897Z,3.53
2022-09-20T05:52:17.250Z,3.65
2022-09-20T05:55:06.796Z,3.38
2022-09-20T05:57:52.169Z,4.13
2022-09-20T06:00:28.050Z,4.60
2022-09-20T06:03:04.079Z,4.32
2022-09-20T06:05:44.166Z,4.40
2022-09-20T06:08:29.822Z,4.18
2022-09-20T06:11:11.401Z,4.05
2022-09-20T06:14:15.937Z,3.50
2022-09-20T06:16:53.576Z,4.32
2022-09-20T06:19:33.084Z,3.92
2022-09-20T06:22:08.531Z,4.43
2022-09-20T06:24:45.588Z,3.88
2022-09-20T06:27:19.808Z,3.92
2022-09-20T06:29:58.180Z,3.95
2022-09-20T06:32:28.224Z,4.00
2022-09-20T06:34:58.494Z,3.53
2022-09-20T06:37:54.969Z,3.58
2022-09-20T06:40:52.688Z,7.88
2022-09-20T06:43:22.884Z,3.75
2022-09-20T06:45:55.610Z,3.28
2022-09-20T06:48:25.631Z,3.55
2022-09-20T06:50:55.604Z,4.22
2022-09-20T06:53:31.096Z,3.45
2022-09-20T06:56:01.436Z,4.28
2022-09-20T06:58:31.477Z,3.78
2022-09-20T07:01:04.177Z,5.15
2022-09-20T07:03:34.416Z,3.85
2022-09-20T07:06:04.582Z,4.25
2022-09-20T07:08:34.763Z,4.45
2022-09-20T07:11:09.909Z,3.45
2022-09-20T07:13:40.166Z,3.80
2022-09-20T07:16:17.242Z,4.18
2022-09-20T07:18:47.538Z,4.15
2022-09-20T07:21:19.805Z,4.35
2022-09-20T07:23:51.435Z,4.47
2022-09-20T07:26:24.468Z,4.45
2022-09-20T07:28:54.759Z,4.22
2022-09-20T07:31:29.416Z,4.22
2022-09-20T07:33:59.724Z,4.20
2022-09-20T07:36:29.854Z,4.35
2022-09-20T07:38:59.996Z,3.95
2022-09-20T07:41:32.673Z,4.30
2022-09-20T07:44:21.072Z,5.60
2022-09-20T07:46:54.991Z,5.35
2022-09-20T07:49:26.354Z,4.28
2022-09-20T07:51:57.025Z,3.38
2022-09-20T07:54:27.762Z,4.05
2022-09-20T07:56:57.946Z,4.03
2022-09-20T07:59:28.192Z,4.40
2022-09-20T08:02:01.141Z,4.28
2022-09-20T08:04:31.384Z,5.25
2022-09-20T08:07:01.886Z,4.72
2022-09-20T08:09:31.933Z,4.85
2022-09-20T08:14:52.607Z,4.85
2022-09-20T08:17:25.398Z,4.28
2022-09-20T08:19:55.690Z,3.95
2022-09-20T08:22:25.895Z,4.53
2022-09-20T08:24:56.276Z,4.43
2022-09-20T08:27:26.596Z,4.03
2022-09-20T08:29:57.613Z,4.47
2022-09-20T08:32:30.635Z,4.30
2022-09-20T08:35:00.739Z,4.28
2022-09-20T08:37:31.002Z,8.40
2022-09-20T08:40:01.367Z,6.13
2022-09-20T08:42:36.716Z,5.25
2022-09-20T08:45:22.260Z,4.00
2022-09-20T08:47:59.451Z,4.45
2022-09-20T08:50:30.044Z,2.70
2022-09-20T08:53:05.321Z,3.25
2022-09-20T08:55:39.747Z,3.08
2022-09-20T08:58:14.472Z,2.92
2022-09-20T09:00:48.323Z,4.80
2022-09-20T09:03:21.649Z,3.83
2022-09-20T09:05:56.153Z,2.75
2022-09-20T09:08:37.264Z,2.33
2022-09-20T09:11:10.207Z,2.80
2022-09-20T09:13:57.047Z,3.25
2022-09-20T09:16:35.263Z,2.47
2022-09-20T09:19:33.964Z,2.70
2022-09-20T09:22:06.280Z,2.13
2022-09-20T09:24:36.510Z,2.30
2022-09-20T09:27:12.229Z,2.65
2022-09-20T09:29:53.017Z,2.17
2022-09-20T09:32:28.637Z,2.50
2022-09-20T09:35:26.821Z,2.10
2022-09-20T09:37:58.710Z,1.80
2022-09-20T09:40:30.322Z,1.55
2022-09-20T09:43:02.439Z,3.58
2022-09-20T09:45:36.440Z,10.55
2022-09-20T09:48:20.749Z,4.03
2022-09-20T09:50:57.158Z,2.15
2022-09-20T09:53:27.600Z,4.70
2022-09-20T09:56:22.285Z,3.05
2022-09-20T09:59:17.345Z,1.65
2022-09-20T10:01:57.390Z,1.65
2022-09-20T10:04:34.644Z,2.08
2022-09-20T10:07:12.748Z,1.58
2022-09-20T10:10:08.620Z,1.77
2022-09-20T10:12:52.381Z,1.15
2022-09-20T10:15:31.367Z,1.13
2022-09-20T10:18:17.411Z,0.93
2022-09-20T10:21:02.343Z,1.13
2022-09-20T10:24:03.088Z,1.27
2022-09-20T10:26:48.301Z,0.55
2022-09-20T10:29:30.467Z,1.13
2022-09-20T10:32:15.414Z,0.50
2022-09-20T10:35:11.752Z,1.17
2022-09-20T10:37:53.065Z,0.95
2022-09-20T10:40:47.433Z,1.75
2022-09-20T10:43:30.819Z,3.50
2022-09-20T10:46:32.491Z,2.40
2022-09-20T10:49:08.093Z,4.05
2022-09-20T10:51:47.518Z,2.33
2022-09-20T10:54:29.542Z,1.75
2022-09-20T10:57:12.244Z,2.25
2022-09-20T10:59:51.433Z,3.13
2022-09-20T11:02:39.114Z,1.15
2022-09-20T11:05:35.955Z,1.27
2022-09-20T11:08:13.585Z,0.85
2022-09-20T11:10:47.264Z,1.52
2022-09-20T11:13:28.120Z,1.35
2022-09-20T11:16:05.965Z,1.08
2022-09-20T11:18:42.512Z,0.90
2022-09-20T11:21:22.101Z,0.75
2022-09-20T11:23:57.504Z,0.50
2022-09-20T11:26:35.321Z,0.57
2022-09-20T11:29:15.921Z,1.05
2022-09-20T11:31:49.250Z,0.85
2022-09-20T11:34:25.978Z,0.88
2022-09-20T11:36:59.126Z,0.95
2022-09-20T11:39:36.516Z,0.90
2022-09-20T11:42:09.631Z,1.10
2022-09-20T11:44:44.711Z,1.05
2022-09-20T11:47:42.861Z,1.65
2022-09-20T11:50:45.382Z,0.60
2022-09-20T11:53:26.895Z,1.05
2022-09-20T11:56:01.382Z,0.60
2022-09-20T11:58:33.272Z,0.60
2022-09-20T12:01:15.992Z,0.30
2022-09-20T12:04:08.650Z,0.82
2022-09-20T12:06:45.465Z,0.63
2022-09-20T12:09:28.517Z,0.82
2022-09-20T12:11:59.818Z,2.13
2022-09-20T12:14:32.870Z,2.30
2022-09-20T12:17:05.725Z,0.75
2022-09-20T12:19:43.174Z,0.47
2022-09-20T12:22:31.545Z,0.70
2022-09-20T12:25:31.549Z,0.90
2022-09-20T12:28:02.213Z,0.55
2022-09-20T12:30:34.073Z,0.50
2022-09-20T12:33:07.522Z,0.32
2022-09-20T12:36:28.525Z,0.90
2022-09-20T12:39:05.614Z,1.65
2022-09-20T12:41:51.073Z,2.42
2022-09-20T12:44:31.810Z,1.52
2022-09-20T12:47:03.919Z,0.60
2022-09-20T12:49:58.103Z,0.45
2022-09-20T12:52:45.185Z,1.25
2022-09-20T12:55:30.120Z,9.00
2022-09-20T12:58:04.126Z,0.63
2022-09-20T13:00:42.739Z,0.47
2022-09-20T13:03:28.642Z,0.55
2022-09-20T13:06:29.155Z,4.43
2022-09-20T13:09:08.770Z,1.65
2022-09-20T13:11:43.924Z,2.35
2022-09-20T13:14:17.616Z,0.57
2022-09-20T13:16:55.236Z,1.98
2022-09-20T13:19:29.582Z,4.13
2022-09-20T13:22:06.407Z,3.63
2022-09-20T13:24:41.093Z,4.63
2022-09-20T13:27:27.569Z,2.00
2022-09-20T13:29:57.794Z,1.77
2022-09-20T13:32:29.471Z,4.20
2022-09-20T13:35:10.347Z,0.90
2022-09-20T13:37:50.634Z,0.52
2022-09-20T13:40:22.817Z,0.50
2022-09-20T13:43:19.651Z,0.50
2022-09-20T13:45:46.705Z,0.40
2022-09-20T13:48:19.402Z,0.73
2022-09-20T13:50:53.497Z,0.77
2022-09-20T13:53:41.066Z,0.57
2022-09-20T13:56:14.772Z,0.50
2022-09-20T13:58:45.546Z,0.40
2022-09-20T14:01:27.192Z,0.57
2022-09-20T14:03:58.023Z,0.47
2022-09-20T14:06:31.784Z,0.57
2022-09-20T14:09:10.773Z,0.93
2022-09-20T14:11:43.013Z,0.35
2022-09-20T14:14:21.906Z,0.28
2022-09-20T14:16:55.194Z,0.35
2022-09-20T14:19:30.502Z,0.47
2022-09-20T14:22:01.790Z,0.50
2022-09-20T14:24:37.450Z,0.30
2022-09-20T14:27:20.150Z,0.70
2022-09-20T14:29:51.524Z,0.55
2022-09-20T14:32:31.385Z,0.32
2022-09-20T14:35:08.294Z,0.40
2022-09-20T14:37:44.595Z,0.43
2022-09-20T14:40:29.498Z,0.30
2022-09-20T14:43:01.914Z,0.82
2022-09-20T14:45:35.427Z,0.75
2022-09-20T14:48:11.134Z,2.00
2022-09-20T14:50:43.414Z,0.50
2022-09-20T14:53:29.805Z,0.35
2022-09-20T14:56:11.612Z,0.55
2022-09-20T14:59:11.731Z,0.57
2022-09-20T15:01:45.167Z,0.22
2022-09-20T15:04:24.588Z,0.22
2022-09-20T15:06:55.199Z,0.22
2022-09-20T15:12:07.153Z,0.50
2022-09-20T15:14:38.189Z,0.45
2022-09-20T15:17:09.152Z,0.28
2022-09-20T15:19:39.411Z,0.65
2022-09-20T15:22:11.135Z,0.50
2022-09-20T15:24:41.747Z,0.28
2022-09-20T15:27:15.503Z,0.57
2022-09-20T15:29:45.738Z,4.47
2022-09-20T15:32:15.966Z,0.65
2022-09-20T15:34:46.215Z,0.28
2022-09-20T15:37:16.438Z,0.65
2022-09-20T15:39:46.708Z,0.40
2022-09-20T15:42:21.538Z,0.90
2022-09-20T15:44:53.194Z,0.50
2022-09-20T15:47:24.158Z,4.93
2022-09-20T15:49:54.763Z,1.17
2022-09-20T15:54:59.719Z,0.80
2022-09-20T15:57:32.820Z,0.57
2022-09-20T16:00:04.578Z,0.57
2022-09-20T16:02:34.698Z,0.43
2022-09-20T16:05:05.082Z,0.55
2022-09-20T16:07:35.920Z,0.45
2022-09-20T16:10:06.796Z,0.50
2022-09-20T16:12:39.526Z,0.47
2022-09-20T16:15:11.289Z,0.30
2022-09-20T16:17:53.819Z,0.32
2022-09-20T16:20:24.464Z,2.17
2022-09-20T16:25:24.339Z,5.05
2022-09-20T16:27:57.159Z,1.83
2022-09-20T16:30:27.459Z,1.80
2022-09-20T16:33:00.573Z,4.72
2022-09-20T16:35:30.660Z,0.80
2022-09-20T16:38:00.843Z,0.57
2022-09-20T16:40:31.166Z,0.52
2022-09-20T16:43:06.083Z,0.30
2022-09-20T16:45:36.644Z,0.73
2022-09-20T16:48:08.666Z,0.40
2022-09-20T16:50:39.213Z,0.38
2022-09-20T16:53:09.367Z,0.55
2022-09-20T16:55:39.509Z,0.85
2022-09-20T16:58:12.278Z,0.30
2022-09-20T17:00:42.626Z,0.40
2022-09-20T17:03:12.761Z,0.50
2022-09-20T17:05:42.958Z,0.32
2022-09-20T17:08:13.064Z,0.30
2022-09-20T17:10:44.832Z,1.58
2022-09-20T17:13:17.882Z,0.32
2022-09-20T17:15:50.191Z,0.85
2022-09-20T17:18:20.813Z,0.95
2022-09-20T17:20:51.278Z,0.60
2022-09-20T17:23:21.507Z,2.08
2022-09-20T17:25:53.375Z,0.35
2022-09-20T17:28:26.562Z,0.57
2022-09-20T17:31:02.246Z,0.50
2022-09-20T17:33:32.744Z,2.08
2022-09-20T17:36:04.051Z,1.33
2022-09-20T17:38:36.897Z,1.63
2022-09-20T17:41:11.450Z,0.88
2022-09-20T17:43:44.929Z,0.85
2022-09-20T17:46:17.001Z,0.75
2022-09-20T17:48:49.161Z,0.88
2022-09-20T17:51:21.059Z,1.00
2022-09-20T17:53:51.243Z,0.80
2022-09-20T17:56:23.785Z,1.90
2022-09-20T17:58:56.901Z,1.70
2022-09-20T18:01:28.803Z,1.60
2022-09-20T18:04:00.993Z,2.15
2022-09-20T18:06:32.530Z,0.68
2022-09-20T18:09:04.318Z,2.03
2022-09-20T18:11:36.676Z,0.85
2022-09-20T18:14:11.747Z,0.75
2022-09-20T18:16:43.376Z,0.55
2022-09-20T18:19:14.366Z,1.23
2022-09-20T18:21:44.844Z,2.92
2022-09-20T18:24:15.478Z,2.92
2022-09-20T18:26:45.948Z,4.22
2022-09-20T18:29:19.904Z,3.70
2022-09-20T18:31:52.359Z,2.15
2022-09-20T18:34:24.533Z,4.13
2022-09-20T18:36:56.287Z,2.17
2022-09-20T18:39:27.506Z,0.98
2022-09-20T18:41:58.219Z,2.80
2022-09-20T18:44:33.787Z,1.23
2022-09-20T18:47:05.603Z,1.05
2022-09-20T18:49:35.950Z,1.25
2022-09-20T18:52:07.227Z,1.23
2022-09-20T18:54:37.526Z,0.93
2022-09-20T18:57:08.718Z,1.00
2022-09-20T18:59:53.849Z,0.85
2022-09-20T19:02:52.108Z,0.57
2022-09-20T19:05:30.247Z,1.02
2022-09-20T19:08:12.135Z,1.17
2022-09-20T19:10:49.330Z,0.90
2022-09-20T19:13:36.140Z,1.05
2022-09-20T19:16:20.773Z,0.88
2022-09-20T19:19:41.506Z,0.80
2022-09-20T19:22:24.424Z,1.23
2022-09-20T19:25:24.935Z,1.15
2022-09-20T19:27:55.642Z,2.03
2022-09-20T19:30:27.097Z,2.55
2022-09-20T19:33:02.908Z,2.67
2022-09-20T19:35:39.204Z,3.05
2022-09-20T19:38:18.348Z,3.17
2022-09-20T19:41:01.298Z,2.97
2022-09-20T19:43:55.836Z,2.17
2022-09-20T19:46:43.262Z,2.13
2022-09-20T19:49:19.322Z,1.50
2022-09-20T19:51:49.911Z,3.22
2022-09-20T19:54:20.788Z,1.20
2022-09-20T19:59:27.617Z,1.38
2022-09-20T20:01:59.474Z,1.52
2022-09-20T20:04:33.060Z,1.02
2022-09-20T20:07:08.820Z,1.17
2022-09-20T20:09:44.245Z,1.05
2022-09-20T20:12:22.595Z,1.67
2022-09-20T20:15:06.331Z,1.98
2022-09-20T20:17:47.878Z,1.45
2022-09-20T20:20:36.174Z,1.50
2022-09-20T20:23:37.522Z,1.73
2022-09-20T20:26:11.046Z,1.48
2022-09-20T20:28:41.521Z,1.50
2022-09-20T20:31:12.694Z,1.20
2022-09-20T20:33:43.710Z,1.52
2022-09-20T20:38:50.094Z,1.50
2022-09-20T20:41:22.218Z,2.13
2022-09-20T20:43:57.378Z,2.08
2022-09-20T20:46:27.850Z,1.60
2022-09-20T20:48:58.694Z,1.73
2022-09-20T20:51:33.244Z,1.65
2022-09-20T20:54:03.472Z,3.20
2022-09-20T20:56:34.578Z,2.30
2022-09-20T20:59:07.533Z,1.80
2022-09-20T21:01:39.738Z,1.55
2022-09-20T21:04:10.109Z,1.50
2022-09-20T21:06:44.205Z,1.52
2022-09-20T21:09:14.887Z,1.67
2022-09-20T21:11:46.847Z,1.50
2022-09-20T21:14:17.316Z,1.88
2022-09-20T21:16:47.528Z,1.90
2022-09-20T21:19:19.203Z,1.90
2022-09-20T21:21:51.868Z,1.45
2022-09-20T21:24:22.089Z,1.60
2022-09-20T21:26:52.376Z,1.60
2022-09-20T21:29:24.931Z,2.00
2022-09-20T21:31:55.032Z,1.90
2022-09-20T21:34:25.651Z,2.33
2022-09-20T21:36:58.529Z,1.60
2022-09-20T21:39:31.425Z,1.42
2022-09-20T21:42:01.573Z,1.40
2022-09-20T21:44:32.616Z,1.92
2022-09-20T21:47:02.821Z,1.27
2022-09-20T21:49:32.956Z,2.25
2022-09-20T21:52:06.524Z,1.98
2022-09-20T21:54:36.823Z,1.73
2022-09-20T21:57:07.592Z,2.40
2022-09-20T21:59:38.164Z,2.65
2022-09-20T22:02:09.277Z,2.42
2022-09-20T22:04:39.992Z,3.92
2022-09-20T22:07:12.774Z,5.18
2022-09-20T22:09:43.210Z,4.47
2022-09-20T22:12:13.354Z,5.38
2022-09-20T22:14:44.681Z,6.22
2022-09-20T22:17:14.830Z,6.15
2022-09-20T22:19:45.641Z,4.82
2022-09-20T22:22:18.702Z,3.60
2022-09-20T22:24:49.353Z,3.28
2022-09-20T22:27:19.822Z,3.35
2022-09-20T22:29:50.357Z,2.42
2022-09-20T22:32:20.791Z,2.25
2022-09-20T22:34:51.278Z,2.20
2022-09-20T22:37:24.404Z,2.38
2022-09-20T22:39:54.897Z,1.83
2022-09-20T22:42:25.270Z,3.20
2022-09-20T22:44:55.842Z,9.73
2022-09-20T22:47:26.635Z,9.85
2022-09-20T22:49:57.139Z,8.57
2022-09-20T22:52:30.212Z,6.28
2022-09-20T22:55:00.727Z,4.50
2022-09-20T22:57:31.217Z,2.90
2022-09-20T23:00:01.783Z,2.92
2022-09-20T23:02:32.271Z,2.38
2022-09-20T23:05:03.377Z,2.60
2022-09-20T23:07:36.508Z,2.88
2022-09-20T23:10:07.557Z,2.28
2022-09-20T23:15:11.834Z,2.38
2022-09-20T23:17:44.568Z,2.95
2022-09-20T23:20:15.552Z,2.15
2022-09-20T23:22:48.584Z,3.17
2022-09-20T23:25:20.625Z,2.83
2022-09-20T23:27:51.062Z,2.15
2022-09-20T23:30:21.875Z,2.70
2022-09-20T23:32:52.362Z,2.13
2022-09-20T23:35:23.227Z,2.65
2022-09-20T23:37:58.644Z,2.35
2022-09-20T23:40:30.065Z,2.08
2022-09-20T23:43:00.623Z,2.40
2022-09-20T23:45:31.530Z,2.63
2022-09-20T23:48:01.950Z,2.40
2022-09-20T23:50:32.442Z,2.40
2022-09-20T23:53:05.482Z,2.90
2022-09-20T23:55:35.932Z,2.42
2022-09-20T23:58:06.388Z,2.63
